Tim Quigg — WDB6570 — position and weather

sailwx.info

Track history (hours):
 
Tides and Currents Weather Stations Pressure Air Temp Water Temp Dewpoint Dewpoint Depression Visibility Wind Speed Wind Dir Waves Ship Positions

Tim Quigg

Owner: Harley Marine Services, Inc, Seattle, WA. More information available from US FCC via Universal Licensing System and Coast Guard Vessel Documentation Center.

Last reported at 2018-Jan-12 07:29 UTC. Time now 2018-Jan-18 15:40 UTC.
Position N 33°44' W 118°16'.

; draft 4.4 m.

Type: Tug. MMSI: 366926740.

Date/timePositionNaut miles runAvg speedWind from/ knotsBaromVisibWave heightAir tempDewpointWater temp
2018-Jan-12 07:29N 33°44' W 118°16'0 0.0
2018-Jan-12 07:00N 33°44' W 118°16'0 0.0
2018-Jan-12 06:30N 33°44' W 118°16'0 0.0
2018-Jan-12 05:58N 33°44' W 118°16'0 0.0
2018-Jan-12 05:30N 33°44' W 118°16'0 0.0
2018-Jan-12 04:59N 33°44' W 118°16'0 0.0
2018-Jan-12 04:22N 33°44' W 118°16'  
2018-Jan-08 18:28N 33°45' W 118°09'4 0.1
2018-Jan-06 19:29N 33°46' W 118°13'3 0.1
2018-Jan-04 23:21N 33°44' W 118°16'3 1.4
2018-Jan-04 21:03N 33°46' W 118°13'0 0.1
2018-Jan-04 20:53N 33°46' W 118°13'2 4.9
2018-Jan-04 20:26N 33°44' W 118°13'2 0.2
2018-Jan-04 06:51N 33°44' W 118°16'0 0.0
2018-Jan-04 06:27N 33°44' W 118°16'0 0.0
2018-Jan-04 05:57N 33°44' W 118°16'0 0.0
2018-Jan-04 05:31N 33°44' W 118°16'1 0.2
2018-Jan-04 00:39N 33°43' W 118°16'0 0.5
2018-Jan-03 23:54N 33°43' W 118°16'2 3.8
2018-Jan-03 23:26N 33°45' W 118°17'1 2.9
2018-Jan-03 22:59N 33°44' W 118°16'0 0.1
2018-Jan-03 20:47N 33°44' W 118°16'3 1.0
2018-Jan-03 17:43N 33°46' W 118°14'1 2.8
2018-Jan-03 17:31N 33°46' W 118°13'3 6.3
2018-Jan-03 17:00N 33°43' W 118°15'1 2.5
2018-Jan-03 16:30N 33°44' W 118°16'1 0.2
2018-Jan-03 12:17N 33°43' W 118°16'1 0.6
2018-Jan-03 10:48N 33°44' W 118°16'0 0.0
2018-Jan-03 04:35N 33°44' W 118°16'0 0.0
2018-Jan-03 04:28N 33°44' W 118°16'0 0.0
2018-Jan-03 03:23N 33°44' W 118°16'0 0.0
2018-Jan-03 03:00N 33°44' W 118°16'1 0.1
2018-Jan-02 22:08N 33°44' W 118°15'0 0.1
2018-Jan-02 21:58N 33°44' W 118°15'1 1.3
2018-Jan-02 21:30N 33°44' W 118°16'0 0.2
2018-Jan-02 20:30N 33°44' W 118°16'0 0.0
2018-Jan-02 20:00N 33°44' W 118°16'0 0.0
2018-Jan-02 19:29N 33°44' W 118°16'0 0.0
2018-Jan-02 18:57N 33°44' W 118°16'0 0.0
2018-Jan-02 18:29N 33°44' W 118°16'1 2.1
2018-Jan-02 17:55N 33°45' W 118°16'1 1.2
2018-Jan-02 17:30N 33°45' W 118°16'0 0.1
2018-Jan-02 14:00N 33°46' W 118°16'2 3.6
2018-Jan-02 13:25N 33°43' W 118°16'1 2.1
2018-Jan-02 12:57N 33°44' W 118°15'0 0.2
2018-Jan-02 10:40N 33°44' W 118°16'0 0.0
2018-Jan-02 10:30N 33°44' W 118°16'0 0.0
2018-Jan-02 10:00N 33°44' W 118°16'0 0.0
2018-Jan-02 07:58N 33°44' W 118°16'0 0.0
2018-Jan-02 07:30N 33°44' W 118°16'  
Track history (hours):
 
Tides and Currents Weather Stations Pressure Air Temp Water Temp Dewpoint Dewpoint Depression Visibility Wind Speed Wind Dir Waves Ship Positions

Tim Quigg

Owner: Harley Marine Services, Inc, Seattle, WA. More information available from US FCC via Universal Licensing System and Coast Guard Vessel Documentation Center.

Last reported at 2018-Jan-12 07:29 UTC. Time now 2018-Jan-18 15:40 UTC.
Position N 33°44' W 118°16'.

; draft 4.4 m.

Type: Tug. MMSI: 366926740.

Date/timePositionNaut miles runAvg speedWind from/ knotsBaromVisibWave heightAir tempDewpointWater temp
2018-Jan-12 07:29N 33°44' W 118°16'0 0.0
2018-Jan-12 07:00N 33°44' W 118°16'0 0.0
2018-Jan-12 06:30N 33°44' W 118°16'0 0.0
2018-Jan-12 05:58N 33°44' W 118°16'0 0.0
2018-Jan-12 05:30N 33°44' W 118°16'0 0.0
2018-Jan-12 04:59N 33°44' W 118°16'0 0.0
2018-Jan-12 04:22N 33°44' W 118°16'  
2018-Jan-08 18:28N 33°45' W 118°09'4 0.1
2018-Jan-06 19:29N 33°46' W 118°13'3 0.1
2018-Jan-04 23:21N 33°44' W 118°16'3 1.4
2018-Jan-04 21:03N 33°46' W 118°13'0 0.1
2018-Jan-04 20:53N 33°46' W 118°13'2 4.9
2018-Jan-04 20:26N 33°44' W 118°13'2 0.2
2018-Jan-04 06:51N 33°44' W 118°16'0 0.0
2018-Jan-04 06:27N 33°44' W 118°16'0 0.0
2018-Jan-04 05:57N 33°44' W 118°16'0 0.0
2018-Jan-04 05:31N 33°44' W 118°16'1 0.2
2018-Jan-04 00:39N 33°43' W 118°16'0 0.5
2018-Jan-03 23:54N 33°43' W 118°16'2 3.8
2018-Jan-03 23:26N 33°45' W 118°17'1 2.9
2018-Jan-03 22:59N 33°44' W 118°16'0 0.1
2018-Jan-03 20:47N 33°44' W 118°16'3 1.0
2018-Jan-03 17:43N 33°46' W 118°14'1 2.8
2018-Jan-03 17:31N 33°46' W 118°13'3 6.3
2018-Jan-03 17:00N 33°43' W 118°15'1 2.5
2018-Jan-03 16:30N 33°44' W 118°16'1 0.2
2018-Jan-03 12:17N 33°43' W 118°16'1 0.6
2018-Jan-03 10:48N 33°44' W 118°16'0 0.0
2018-Jan-03 04:35N 33°44' W 118°16'0 0.0
2018-Jan-03 04:28N 33°44' W 118°16'0 0.0
2018-Jan-03 03:23N 33°44' W 118°16'0 0.0
2018-Jan-03 03:00N 33°44' W 118°16'1 0.1
2018-Jan-02 22:08N 33°44' W 118°15'0 0.1
2018-Jan-02 21:58N 33°44' W 118°15'1 1.3
2018-Jan-02 21:30N 33°44' W 118°16'0 0.2
2018-Jan-02 20:30N 33°44' W 118°16'0 0.0
2018-Jan-02 20:00N 33°44' W 118°16'0 0.0
2018-Jan-02 19:29N 33°44' W 118°16'0 0.0
2018-Jan-02 18:57N 33°44' W 118°16'0 0.0
2018-Jan-02 18:29N 33°44' W 118°16'1 2.1
2018-Jan-02 17:55N 33°45' W 118°16'1 1.2
2018-Jan-02 17:30N 33°45' W 118°16'0 0.1
2018-Jan-02 14:00N 33°46' W 118°16'2 3.6
2018-Jan-02 13:25N 33°43' W 118°16'1 2.1
2018-Jan-02 12:57N 33°44' W 118°15'0 0.2
2018-Jan-02 10:40N 33°44' W 118°16'0 0.0
2018-Jan-02 10:30N 33°44' W 118°16'0 0.0
2018-Jan-02 10:00N 33°44' W 118°16'0 0.0
2018-Jan-02 07:58N 33°44' W 118°16'0 0.0
2018-Jan-02 07:30N 33°44' W 118°16'  

Dump ship's entire track history